Time;durP1;ratioP1;P1;durP2;ratioP2;P2;SDS_P1;SDS_P2;PMS_P1;PMS_P2;Temp;Humidity;BMP_temperature;BMP_pressure;BME280_temperature;BME280_humidity;BME280_pressure;Samples;Min_cycle;Max_cycle;Signal;HPM_P1;HPM_P2
2021/10/12 00:01:15;;;;;;;8.93;5.57;;;;;;;;;;5074463;28;20039;-80
2021/10/12 00:03:40;;;;;;;4.40;4.00;;;;;;;;;;5074739;28;20044;-78
2021/10/12 00:06:07;;;;;;;7.68;5.22;;;;;;;;;;5074561;28;20032;-79
2021/10/12 00:08:33;;;;;;;5.57;3.50;;;;;;;;;;5056643;28;20041;-79
2021/10/12 00:10:59;;;;;;;7.30;5.00;;;;;;;;;;5074454;28;20036;-78
2021/10/12 00:13:24;;;;;;;8.50;6.80;;;;;;;;;;5074665;28;20040;-79
2021/10/12 00:15:50;;;;;;;6.78;4.85;;;;;;;;;;5074531;28;20024;-78
2021/10/12 00:18:15;;;;;;;7.65;5.00;;;;;;;;;;5074215;28;20132;-78
2021/10/12 00:20:40;;;;;;;4.45;3.47;;;;;;;;;;5074096;28;20025;-75
2021/10/12 00:23:06;;;;;;;7.97;5.32;;;;;;;;;;5074042;28;20036;-76
2021/10/12 00:25:32;;;;;;;7.45;5.45;;;;;;;;;;5074126;28;20111;-75
2021/10/12 00:27:57;;;;;;;4.90;4.30;;;;;;;;;;5074140;28;20123;-75
2021/10/12 00:30:23;;;;;;;6.22;5.50;;;;;;;;;;5074398;28;20036;-76
2021/10/12 00:32:48;;;;;;;5.85;4.13;;;;;;;;;;5075274;28;20086;-76
2021/10/12 00:35:14;;;;;;;6.32;5.18;;;;;;;;;;5074151;28;20857;-75
2021/10/12 00:37:39;;;;;;;6.95;3.75;;;;;;;;;;5073844;28;20039;-76
2021/10/12 00:40:05;;;;;;;8.23;3.97;;;;;;;;;;5055603;28;20051;-75
2021/10/12 00:42:31;;;;;;;7.43;5.38;;;;;;;;;;5073580;28;20074;-76
2021/10/12 00:44:57;;;;;;;6.40;4.88;;;;;;;;;;5073538;28;20071;-76
2021/10/12 00:47:22;;;;;;;6.95;5.07;;;;;;;;;;5073716;28;20158;-75
2021/10/12 00:49:48;;;;;;;6.18;4.35;;;;;;;;;;5073183;28;20520;-75
2021/10/12 00:52:13;;;;;;;7.53;5.70;;;;;;;;;;5055397;28;20064;-76
2021/10/12 00:54:39;;;;;;;6.47;5.40;;;;;;;;;;5073472;28;20121;-75
2021/10/12 00:57:06;;;;;;;3.97;3.08;;;;;;;;;;5073024;28;20028;-78
2021/10/12 00:59:31;;;;;;;8.38;6.78;;;;;;;;;;5073283;28;20401;-76
2021/10/12 01:01:57;;;;;;;7.93;5.07;;;;;;;;;;5073349;28;20039;-77
2021/10/12 01:04:22;;;;;;;6.13;4.43;;;;;;;;;;5073332;28;20037;-77
2021/10/12 01:06:48;;;;;;;8.45;4.20;;;;;;;;;;5073220;28;20028;-77
2021/10/12 01:09:13;;;;;;;6.75;5.50;;;;;;;;;;5073082;28;20040;-75
2021/10/12 01:11:39;;;;;;;5.85;4.75;;;;;;;;;;5073223;28;20119;-76
2021/10/12 01:14:04;;;;;;;5.32;4.82;;;;;;;;;;5073042;28;20493;-77
2021/10/12 01:16:30;;;;;;;6.35;4.82;;;;;;;;;;5073012;28;20040;-76
2021/10/12 01:19:04;;;;;;;7.22;4.55;;;;;;;;;;5073050;28;20024;-76
2021/10/12 01:21:36;;;;;;;5.97;5.47;;;;;;;;;;5072834;28;20048;-77
2021/10/12 01:24:01;;;;;;;6.07;4.80;;;;;;;;;;5072664;28;20548;-76
2021/10/12 01:26:27;;;;;;;6.10;4.70;;;;;;;;;;5072653;28;20036;-76
2021/10/12 01:28:52;;;;;;;4.95;4.18;;;;;;;;;;5073212;28;20029;-77
2021/10/12 01:31:22;;;;;;;6.22;4.28;;;;;;;;;;5072719;28;20056;-78
2021/10/12 01:33:47;;;;;;;6.40;4.47;;;;;;;;;;5072723;28;20051;-78
2021/10/12 01:36:13;;;;;;;6.03;4.78;;;;;;;;;;5072643;28;20033;-76
2021/10/12 01:38:39;;;;;;;9.75;6.32;;;;;;;;;;5054801;28;20463;-77
2021/10/12 01:41:05;;;;;;;6.45;4.88;;;;;;;;;;5072631;28;20028;-77
2021/10/12 01:43:30;;;;;;;7.90;4.25;;;;;;;;;;5072373;28;20039;-76
2021/10/12 01:46:02;;;;;;;6.68;4.47;;;;;;;;;;5072557;28;20028;-76
2021/10/12 01:48:28;;;;;;;5.97;4.07;;;;;;;;;;5054106;28;20080;-76
2021/10/12 01:50:54;;;;;;;7.30;4.70;;;;;;;;;;5072643;28;20044;-78
2021/10/12 01:53:19;;;;;;;6.93;5.38;;;;;;;;;;5072150;28;20040;-76
2021/10/12 01:55:44;;;;;;;6.47;4.13;;;;;;;;;;5072206;28;20036;-77
2021/10/12 01:58:10;;;;;;;7.28;4.93;;;;;;;;;;5054353;28;20026;-76
2021/10/12 02:00:35;;;;;;;9.05;4.82;;;;;;;;;;5072128;28;20548;-77
2021/10/12 02:03:00;;;;;;;5.68;4.13;;;;;;;;;;5072423;28;20074;-77
2021/10/12 02:05:26;;;;;;;9.07;7.38;;;;;;;;;;5072139;28;20462;-77
2021/10/12 02:07:52;;;;;;;7.35;4.43;;;;;;;;;;5072186;28;20461;-76
2021/10/12 02:10:17;;;;;;;7.15;4.78;;;;;;;;;;5071243;28;20082;-76
2021/10/12 02:12:43;;;;;;;5.38;4.82;;;;;;;;;;5072183;28;20089;-76
2021/10/12 02:15:09;;;;;;;6.20;4.13;;;;;;;;;;5072107;28;20032;-76
2021/10/12 02:17:34;;;;;;;5.50;4.78;;;;;;;;;;5072743;28;20036;-76
2021/10/12 02:20:00;;;;;;;6.30;5.03;;;;;;;;;;5054793;28;20031;-77
2021/10/12 02:22:26;;;;;;;6.88;5.10;;;;;;;;;;5072024;28;20081;-77
2021/10/12 02:24:51;;;;;;;8.13;5.00;;;;;;;;;;5071655;28;20032;-77
2021/10/12 02:27:17;;;;;;;6.22;4.63;;;;;;;;;;5071559;28;20508;-77
2021/10/12 02:29:42;;;;;;;6.05;5.45;;;;;;;;;;5071793;28;20113;-77
2021/10/12 02:32:08;;;;;;;6.05;4.10;;;;;;;;;;5071425;28;20037;-76
2021/10/12 02:34:33;;;;;;;7.97;5.47;;;;;;;;;;5071556;28;20024;-77
2021/10/12 02:36:59;;;;;;;5.50;4.50;;;;;;;;;;5071543;28;20498;-78
2021/10/12 02:39:24;;;;;;;4.90;4.30;;;;;;;;;;5071713;28;20036;-77
2021/10/12 02:41:50;;;;;;;6.75;4.65;;;;;;;;;;5071479;28;20037;-78
2021/10/12 02:44:15;;;;;;;4.32;2.53;;;;;;;;;;5071460;28;20029;-77
2021/10/12 02:46:41;;;;;;;7.15;5.97;;;;;;;;;;5071476;28;20043;-77
2021/10/12 02:49:06;;;;;;;5.32;3.53;;;;;;;;;;5071617;28;20064;-77
2021/10/12 02:51:31;;;;;;;5.90;3.85;;;;;;;;;;5071830;28;20033;-77
2021/10/12 02:53:57;;;;;;;6.10;4.30;;;;;;;;;;5077653;28;20063;-78
2021/10/12 02:56:22;;;;;;;6.38;5.78;;;;;;;;;;5084647;28;20032;-77
2021/10/12 02:58:48;;;;;;;7.97;3.95;;;;;;;;;;5074903;28;20043;-78
2021/10/12 03:01:13;;;;;;;7.63;4.28;;;;;;;;;;5094585;28;20095;-77
2021/10/12 03:03:39;;;;;;;7.45;4.38;;;;;;;;;;5093667;28;20047;-79
2021/10/12 03:06:04;;;;;;;5.22;4.20;;;;;;;;;;5084974;28;20107;-77
2021/10/12 03:08:29;;;;;;;6.60;5.57;;;;;;;;;;5073370;28;20078;-79
2021/10/12 03:10:55;;;;;;;6.72;4.43;;;;;;;;;;5073045;28;20036;-79
2021/10/12 03:13:20;;;;;;;6.20;4.35;;;;;;;;;;5072258;28;20044;-80
2021/10/12 03:15:46;;;;;;;7.78;6.97;;;;;;;;;;5071634;28;20035;-81
2021/10/12 03:18:11;;;;;;;8.45;4.55;;;;;;;;;;5071355;28;20079;-78
2021/10/12 03:20:37;;;;;;;6.20;4.78;;;;;;;;;;5053119;28;20413;-77
2021/10/12 03:23:02;;;;;;;9.80;4.68;;;;;;;;;;5075033;28;20036;-78
2021/10/12 03:25:27;;;;;;;7.05;5.72;;;;;;;;;;5074938;28;20394;-77
2021/10/12 03:27:53;;;;;;;11.15;6.63;;;;;;;;;;5057691;28;20413;-77
2021/10/12 03:30:18;;;;;;;8.00;6.93;;;;;;;;;;5074879;28;20408;-79
2021/10/12 03:32:44;;;;;;;6.00;5.43;;;;;;;;;;5074570;28;20879;-77
2021/10/12 03:35:10;;;;;;;7.80;4.28;;;;;;;;;;5075414;28;20036;-78
2021/10/12 03:37:35;;;;;;;5.72;3.72;;;;;;;;;;5075114;28;20120;-77
2021/10/12 03:40:01;;;;;;;6.70;5.50;;;;;;;;;;5075151;28;20398;-78
2021/10/12 03:42:26;;;;;;;5.68;4.40;;;;;;;;;;5074781;28;20029;-78
2021/10/12 03:44:51;;;;;;;10.23;4.15;;;;;;;;;;5075098;28;20044;-77
2021/10/12 03:47:17;;;;;;;8.00;4.05;;;;;;;;;;5074779;28;20029;-77
2021/10/12 03:49:42;;;;;;;7.47;4.32;;;;;;;;;;5074548;28;20049;-77
2021/10/12 03:52:08;;;;;;;9.65;4.45;;;;;;;;;;5074919;28;20035;-78
2021/10/12 03:54:33;;;;;;;6.75;4.32;;;;;;;;;;5074506;28;20048;-78
2021/10/12 03:56:59;;;;;;;7.28;4.63;;;;;;;;;;5074581;28;20114;-76
2021/10/12 03:59:25;;;;;;;9.00;4.88;;;;;;;;;;5074288;28;20037;-76
2021/10/12 04:01:51;;;;;;;8.98;6.93;;;;;;;;;;5075308;28;20032;-77
2021/10/12 04:04:16;;;;;;;7.35;4.75;;;;;;;;;;5076131;28;20074;-78
2021/10/12 04:06:41;;;;;;;8.27;6.30;;;;;;;;;;5075403;28;20530;-78
2021/10/12 04:09:07;;;;;;;6.18;4.47;;;;;;;;;;5074307;28;20036;-77
2021/10/12 04:11:32;;;;;;;7.65;4.85;;;;;;;;;;5073873;28;20523;-77
2021/10/12 04:13:58;;;;;;;6.68;4.25;;;;;;;;;;5074017;28;20044;-77
2021/10/12 04:16:23;;;;;;;5.90;3.95;;;;;;;;;;5074160;28;20036;-78
2021/10/12 04:18:48;;;;;;;6.97;3.90;;;;;;;;;;5073788;28;20033;-78
2021/10/12 04:21:14;;;;;;;9.55;8.55;;;;;;;;;;5073701;28;20205;-78
2021/10/12 04:23:39;;;;;;;4.25;2.85;;;;;;;;;;5073582;28;20039;-77
2021/10/12 04:26:09;;;;;;;7.22;6.40;;;;;;;;;;5073887;28;20036;-77
2021/10/12 04:28:34;;;;;;;11.35;5.07;;;;;;;;;;5073588;28;20086;-79
2021/10/12 04:30:59;;;;;;;8.05;4.80;;;;;;;;;;5055531;28;20433;-78
2021/10/12 04:33:25;;;;;;;5.78;4.53;;;;;;;;;;5072795;28;20059;-77
2021/10/12 04:35:50;;;;;;;7.40;4.97;;;;;;;;;;5073737;28;20035;-76
2021/10/12 04:38:16;;;;;;;6.40;3.75;;;;;;;;;;5073256;28;20036;-78
2021/10/12 04:40:42;;;;;;;7.90;5.30;;;;;;;;;;5073642;28;20036;-77
2021/10/12 04:43:08;;;;;;;7.32;4.53;;;;;;;;;;5073824;28;20036;-78
2021/10/12 04:45:34;;;;;;;9.98;5.72;;;;;;;;;;5055052;28;20378;-78
2021/10/12 04:48:00;;;;;;;5.32;4.43;;;;;;;;;;5072980;28;20040;-78
2021/10/12 04:50:25;;;;;;;6.70;4.93;;;;;;;;;;5072616;28;20060;-78
2021/10/12 04:52:51;;;;;;;8.10;5.00;;;;;;;;;;5073423;28;20037;-78
2021/10/12 04:55:16;;;;;;;14.85;5.47;;;;;;;;;;5073055;28;20122;-79
2021/10/12 04:57:42;;;;;;;7.18;3.53;;;;;;;;;;5072958;28;20044;-77
2021/10/12 05:00:08;;;;;;;8.73;5.25;;;;;;;;;;5072946;28;20043;-78
2021/10/12 05:02:34;;;;;;;12.63;5.35;;;;;;;;;;5072007;28;20037;-77
2021/10/12 05:04:59;;;;;;;13.25;7.78;;;;;;;;;;5073140;28;20044;-78
2021/10/12 05:07:25;;;;;;;9.07;4.95;;;;;;;;;;5057784;28;20047;-79
2021/10/12 05:09:50;;;;;;;9.73;5.18;;;;;;;;;;5072781;28;20070;-78
2021/10/12 05:12:16;;;;;;;8.50;5.90;;;;;;;;;;5072710;28;20394;-78
2021/10/12 05:14:42;;;;;;;8.60;5.10;;;;;;;;;;5073097;28;20044;-70
2021/10/12 05:17:15;;;;;;;9.20;4.85;;;;;;;;;;5072611;28;20032;-71
2021/10/12 05:19:41;;;;;;;8.15;5.22;;;;;;;;;;5054343;28;20032;-71
2021/10/12 05:22:06;;;;;;;8.52;4.40;;;;;;;;;;5072835;28;20490;-74
2021/10/12 05:24:32;;;;;;;8.93;5.47;;;;;;;;;;5072615;28;20047;-77
2021/10/12 05:26:57;;;;;;;8.70;5.55;;;;;;;;;;5056607;28;20452;-76
2021/10/12 05:29:23;;;;;;;10.88;5.20;;;;;;;;;;5077963;28;20107;-78
2021/10/12 05:31:48;;;;;;;7.90;6.57;;;;;;;;;;5077509;28;20036;-79
2021/10/12 05:34:14;;;;;;;7.30;4.72;;;;;;;;;;5076357;28;20151;-78
2021/10/12 05:36:42;;;;;;;10.60;6.75;;;;;;;;;;5058273;28;20042;-77
2021/10/12 05:39:08;;;;;;;7.78;5.05;;;;;;;;;;5079682;28;20041;-78
2021/10/12 05:41:33;;;;;;;8.38;7.43;;;;;;;;;;5084608;28;20101;-81
2021/10/12 05:43:58;;;;;;;8.02;4.72;;;;;;;;;;5079744;28;20039;-80
2021/10/12 05:46:24;;;;;;;8.43;5.13;;;;;;;;;;5074022;28;20029;-78
2021/10/12 05:48:49;;;;;;;8.93;6.53;;;;;;;;;;5074567;28;20438;-77
2021/10/12 05:51:18;;;;;;;10.20;5.65;;;;;;;;;;5073310;28;20029;-78
2021/10/12 05:53:49;;;;;;;12.15;6.30;;;;;;;;;;5054912;28;20130;-79
2021/10/12 05:56:27;;;;;;;9.52;5.65;;;;;;;;;;5071928;28;20042;-77
2021/10/12 05:58:53;;;;;;;5.97;3.63;;;;;;;;;;5072225;28;20078;-78
2021/10/12 06:01:21;;;;;;;14.05;8.80;;;;;;;;;;5071840;28;20028;-77
2021/10/12 06:03:47;;;;;;;8.77;5.15;;;;;;;;;;5072022;28;20036;-77
2021/10/12 06:06:13;;;;;;;10.77;6.43;;;;;;;;;;5071901;28;20033;-76
2021/10/12 06:08:40;;;;;;;15.15;5.72;;;;;;;;;;5071887;28;20036;-76
2021/10/12 06:11:06;;;;;;;10.13;7.90;;;;;;;;;;5072083;28;20501;-78
2021/10/12 06:13:33;;;;;;;14.55;5.65;;;;;;;;;;5071640;28;20078;-77
2021/10/12 06:16:00;;;;;;;9.00;6.30;;;;;;;;;;5071344;28;20029;-77
2021/10/12 06:18:26;;;;;;;10.18;5.47;;;;;;;;;;5071813;28;20173;-80
2021/10/12 06:20:52;;;;;;;11.95;4.80;;;;;;;;;;5053475;28;20127;-78
2021/10/12 06:23:18;;;;;;;9.73;7.90;;;;;;;;;;5071379;28;20473;-76
2021/10/12 06:25:45;;;;;;;12.25;5.72;;;;;;;;;;5071799;28;20033;-76
2021/10/12 06:28:13;;;;;;;8.50;5.13;;;;;;;;;;5053351;28;20177;-76
2021/10/12 06:30:39;;;;;;;10.57;5.93;;;;;;;;;;5072060;28;20115;-76
2021/10/12 06:33:05;;;;;;;9.45;6.47;;;;;;;;;;5072045;28;20112;-78
2021/10/12 06:35:31;;;;;;;9.27;5.35;;;;;;;;;;5053883;28;20131;-79
2021/10/12 06:37:57;;;;;;;11.57;7.72;;;;;;;;;;5053229;28;20117;-79
2021/10/12 06:40:23;;;;;;;11.00;7.25;;;;;;;;;;5053795;28;20154;-78
2021/10/12 06:42:49;;;;;;;8.80;5.15;;;;;;;;;;5071157;28;20044;-76
2021/10/12 06:45:16;;;;;;;9.63;6.97;;;;;;;;;;5071265;28;20028;-78
2021/10/12 06:47:44;;;;;;;11.32;5.88;;;;;;;;;;5053180;28;20032;-77
2021/10/12 06:50:10;;;;;;;11.10;8.38;;;;;;;;;;5071160;28;20473;-77
2021/10/12 06:52:36;;;;;;;10.88;7.10;;;;;;;;;;5071662;28;20127;-79
2021/10/12 06:55:01;;;;;;;11.30;6.88;;;;;;;;;;5071927;28;20044;-77
2021/10/12 06:57:27;;;;;;;6.63;5.35;;;;;;;;;;5071947;28;20059;-78
2021/10/12 06:59:52;;;;;;;9.65;6.25;;;;;;;;;;5070801;28;20033;-75
2021/10/12 07:02:18;;;;;;;13.50;9.07;;;;;;;;;;5071720;28;20404;-76
2021/10/12 07:04:44;;;;;;;11.93;6.32;;;;;;;;;;5071589;28;20044;-79
2021/10/12 07:07:10;;;;;;;14.60;6.40;;;;;;;;;;5071435;28;20115;-77
2021/10/12 07:09:35;;;;;;;8.88;5.80;;;;;;;;;;5071391;28;20131;-77
2021/10/12 07:12:01;;;;;;;10.38;6.45;;;;;;;;;;5071582;28;20539;-77
2021/10/12 07:14:27;;;;;;;9.00;5.70;;;;;;;;;;5070815;28;20071;-78
2021/10/12 07:16:53;;;;;;;9.65;5.57;;;;;;;;;;5071834;28;20051;-78
2021/10/12 07:19:20;;;;;;;11.35;6.65;;;;;;;;;;5071703;28;20452;-79
2021/10/12 07:21:45;;;;;;;7.78;5.82;;;;;;;;;;5071752;28;20775;-76
2021/10/12 07:24:12;;;;;;;10.07;6.32;;;;;;;;;;5053693;28;20040;-79
2021/10/12 07:26:37;;;;;;;10.27;6.57;;;;;;;;;;5071650;28;20524;-77
2021/10/12 07:29:03;;;;;;;8.93;5.63;;;;;;;;;;5054712;28;20064;-77
2021/10/12 07:31:29;;;;;;;9.20;5.85;;;;;;;;;;5074059;28;20028;-77
2021/10/12 07:33:55;;;;;;;12.38;8.15;;;;;;;;;;5079795;28;20541;-77
2021/10/12 07:36:21;;;;;;;11.95;5.60;;;;;;;;;;5072198;28;20068;-77
2021/10/12 07:38:47;;;;;;;9.55;6.43;;;;;;;;;;5070933;28;20028;-78
2021/10/12 07:41:15;;;;;;;9.15;5.50;;;;;;;;;;5053597;28;20068;-78
2021/10/12 07:43:41;;;;;;;10.40;5.07;;;;;;;;;;5067502;28;20040;-78
2021/10/12 07:46:07;;;;;;;11.40;5.68;;;;;;;;;;5070435;28;20062;-78
2021/10/12 07:48:33;;;;;;;9.60;6.03;;;;;;;;;;5070901;28;20489;-77
2021/10/12 07:50:58;;;;;;;10.52;6.18;;;;;;;;;;5071014;28;20032;-77
2021/10/12 07:53:23;;;;;;;12.07;6.32;;;;;;;;;;5070596;28;20044;-78
2021/10/12 07:55:55;;;;;;;9.35;4.90;;;;;;;;;;5065051;28;20040;-77
2021/10/12 07:58:24;;;;;;;17.38;6.25;;;;;;;;;;5050654;28;20091;-78
2021/10/12 08:00:50;;;;;;;11.07;5.88;;;;;;;;;;5061495;28;20028;-78
2021/10/12 08:03:17;;;;;;;10.45;5.18;;;;;;;;;;5068848;28;20032;-78
2021/10/12 08:05:42;;;;;;;8.35;5.60;;;;;;;;;;5050218;28;20048;-79
2021/10/12 08:08:08;;;;;;;15.00;7.18;;;;;;;;;;5070384;28;20383;-77
2021/10/12 08:10:34;;;;;;;14.05;6.20;;;;;;;;;;5072333;28;20037;-78
2021/10/12 08:13:04;;;;;;;12.70;7.15;;;;;;;;;;5073030;28;20082;-78
2021/10/12 08:15:30;;;;;;;12.35;5.43;;;;;;;;;;5055600;28;20531;-77
2021/10/12 08:17:55;;;;;;;9.40;5.38;;;;;;;;;;5092560;28;20021;-79
2021/10/12 08:20:21;;;;;;;12.55;6.78;;;;;;;;;;5079527;28;20036;-77
2021/10/12 08:22:46;;;;;;;16.38;6.57;;;;;;;;;;5076815;28;20039;-77
2021/10/12 08:25:12;;;;;;;13.75;6.50;;;;;;;;;;5077493;28;20128;-78
2021/10/12 08:27:39;;;;;;;9.77;5.80;;;;;;;;;;5073875;28;20056;-78
2021/10/12 08:30:07;;;;;;;10.38;6.38;;;;;;;;;;5055069;28;20089;-76
2021/10/12 08:32:33;;;;;;;8.07;5.22;;;;;;;;;;5073795;28;20119;-78
2021/10/12 08:34:58;;;;;;;8.43;5.07;;;;;;;;;;5072914;28;20119;-77
2021/10/12 08:37:24;;;;;;;12.35;6.55;;;;;;;;;;5072777;28;20036;-78
2021/10/12 08:39:49;;;;;;;14.63;7.85;;;;;;;;;;5072263;28;20037;-77
2021/10/12 08:42:24;;;;;;;9.23;5.57;;;;;;;;;;5073027;28;20044;-78
2021/10/12 08:44:55;;;;;;;12.38;5.68;;;;;;;;;;5073275;28;20111;-78
2021/10/12 08:47:23;;;;;;;11.18;6.43;;;;;;;;;;5072476;28;20515;-76
2021/10/12 08:49:49;;;;;;;12.05;6.80;;;;;;;;;;5053338;28;20116;-78
2021/10/12 08:52:15;;;;;;;10.85;6.75;;;;;;;;;;5071750;28;20028;-78
2021/10/12 08:54:40;;;;;;;12.27;6.30;;;;;;;;;;5072006;28;20036;-77
2021/10/12 08:57:06;;;;;;;11.27;7.45;;;;;;;;;;5072786;28;20062;-77
2021/10/12 08:59:31;;;;;;;12.20;6.78;;;;;;;;;;5072707;28;20081;-76
2021/10/12 09:01:58;;;;;;;9.75;5.70;;;;;;;;;;5071396;28;20037;-78
2021/10/12 09:04:35;;;;;;;13.80;6.43;;;;;;;;;;5072860;28;20118;-76
2021/10/12 09:07:00;;;;;;;10.88;6.85;;;;;;;;;;5054850;28;20064;-77
2021/10/12 09:09:35;;;;;;;10.65;5.80;;;;;;;;;;5071808;28;20125;-77
2021/10/12 09:12:03;;;;;;;14.50;7.93;;;;;;;;;;5071207;28;20451;-77
2021/10/12 09:14:28;;;;;;;10.55;6.03;;;;;;;;;;5072469;28;20040;-76
2021/10/12 09:17:03;;;;;;;14.20;8.38;;;;;;;;;;5072290;28;20409;-77
2021/10/12 09:19:33;;;;;;;9.45;6.30;;;;;;;;;;5072925;28;20040;-76
2021/10/12 09:22:04;;;;;;;11.48;6.55;;;;;;;;;;5065153;28;20031;-77
2021/10/12 09:24:36;;;;;;;13.15;6.50;;;;;;;;;;5060582;28;20043;-78
2021/10/12 09:27:05;;;;;;;13.68;7.22;;;;;;;;;;5072086;28;20056;-76
2021/10/12 09:29:42;;;;;;;12.18;7.38;;;;;;;;;;5072379;28;20043;-77
2021/10/12 09:32:09;;;;;;;16.38;6.72;;;;;;;;;;5053738;28;20028;-78
2021/10/12 09:34:37;;;;;;;13.15;7.63;;;;;;;;;;5053312;28;20060;-77
2021/10/12 09:37:05;;;;;;;16.75;6.95;;;;;;;;;;5069712;28;20028;-77
2021/10/12 09:39:48;;;;;;;11.07;6.55;;;;;;;;;;5070490;28;20440;-78
2021/10/12 09:42:20;;;;;;;11.82;7.07;;;;;;;;;;5070822;28;20093;-77
2021/10/12 09:44:59;;;;;;;10.73;6.05;;;;;;;;;;5070710;28;20115;-77
2021/10/12 09:47:27;;;;;;;11.30;6.47;;;;;;;;;;5053809;28;20049;-77
2021/10/12 09:50:10;;;;;;;9.88;5.93;;;;;;;;;;5060141;28;20045;-77
2021/10/12 09:52:42;;;;;;;13.52;6.72;;;;;;;;;;5050891;28;20378;-77
2021/10/12 09:55:09;;;;;;;11.73;7.32;;;;;;;;;;5051577;28;20060;-77
2021/10/12 09:57:36;;;;;;;10.27;7.05;;;;;;;;;;5051101;28;20051;-76
2021/10/12 10:00:01;;;;;;;9.43;6.10;;;;;;;;;;5033508;28;20044;-75
2021/10/12 10:02:27;;;;;;;10.07;6.30;;;;;;;;;;5033059;28;20032;-78
2021/10/12 10:04:53;;;;;;;10.90;5.80;;;;;;;;;;5053692;28;20040;-76
2021/10/12 10:07:24;;;;;;;10.57;5.82;;;;;;;;;;5050645;28;20059;-78
2021/10/12 10:09:54;;;;;;;9.48;5.00;;;;;;;;;;5051553;28;20033;-79
2021/10/12 10:12:20;;;;;;;8.68;5.25;;;;;;;;;;5033276;28;20036;-78
2021/10/12 10:14:45;;;;;;;10.70;6.43;;;;;;;;;;5050410;28;20152;-77
2021/10/12 10:17:13;;;;;;;9.73;6.63;;;;;;;;;;5050700;28;20368;-78
2021/10/12 10:19:41;;;;;;;11.85;6.65;;;;;;;;;;5066638;28;20052;-78
2021/10/12 10:22:07;;;;;;;13.35;7.90;;;;;;;;;;5069766;28;20767;-78
2021/10/12 10:24:46;;;;;;;9.70;6.60;;;;;;;;;;5069702;28;20040;-78
2021/10/12 10:27:31;;;;;;;13.20;6.70;;;;;;;;;;5066515;28;20448;-77
2021/10/12 10:30:20;;;;;;;11.73;6.13;;;;;;;;;;5067918;28;20035;-79
2021/10/12 10:32:58;;;;;;;14.65;7.18;;;;;;;;;;5070855;28;20041;-77
2021/10/12 10:35:32;;;;;;;13.88;6.35;;;;;;;;;;5053031;28;20077;-78
2021/10/12 10:38:19;;;;;;;12.18;6.50;;;;;;;;;;5069464;28;20702;-77
2021/10/12 10:40:46;;;;;;;12.35;6.78;;;;;;;;;;5070750;28;20044;-78
2021/10/12 10:43:12;;;;;;;10.63;7.30;;;;;;;;;;5058088;28;20139;-79
2021/10/12 10:45:39;;;;;;;10.80;5.22;;;;;;;;;;5032669;28;20533;-79
2021/10/12 10:48:05;;;;;;;9.40;6.28;;;;;;;;;;5050894;28;20036;-79
2021/10/12 10:50:34;;;;;;;10.30;6.22;;;;;;;;;;5040272;28;20041;-79
2021/10/12 10:53:09;;;;;;;11.18;5.90;;;;;;;;;;5065778;28;20087;-79
2021/10/12 10:55:37;;;;;;;9.95;5.70;;;;;;;;;;5062840;28;20094;-79
2021/10/12 10:58:06;;;;;;;8.00;4.90;;;;;;;;;;5050741;28;20110;-78
2021/10/12 11:00:46;;;;;;;8.63;6.10;;;;;;;;;;5052537;28;20504;-78
2021/10/12 11:03:36;;;;;;;8.55;5.60;;;;;;;;;;5051877;28;20037;-78
2021/10/12 11:06:08;;;;;;;8.77;5.88;;;;;;;;;;5050230;28;20051;-78
2021/10/12 11:08:39;;;;;;;10.50;6.20;;;;;;;;;;5049570;28;20045;-77
2021/10/12 11:11:09;;;;;;;9.93;6.25;;;;;;;;;;5039946;28;20036;-79
2021/10/12 11:13:43;;;;;;;8.65;4.65;;;;;;;;;;5069839;28;20028;-79
2021/10/12 11:16:13;;;;;;;6.68;4.53;;;;;;;;;;5069749;28;20032;-78
2021/10/12 11:18:41;;;;;;;10.82;5.85;;;;;;;;;;5070041;28;20033;-81
2021/10/12 11:21:17;;;;;;;9.60;5.70;;;;;;;;;;5070033;28;20490;-79
2021/10/12 11:23:49;;;;;;;10.23;6.07;;;;;;;;;;5070094;28;20064;-79
2021/10/12 11:26:16;;;;;;;9.90;6.65;;;;;;;;;;5052153;28;20093;-79
2021/10/12 11:28:47;;;;;;;12.50;5.78;;;;;;;;;;5051314;28;20063;-79
2021/10/12 11:31:18;;;;;;;11.07;5.15;;;;;;;;;;5069729;28;20040;-78
2021/10/12 11:33:46;;;;;;;11.23;5.78;;;;;;;;;;5069903;28;20052;-78
2021/10/12 11:36:16;;;;;;;12.30;6.57;;;;;;;;;;5068743;28;20379;-79
2021/10/12 11:38:45;;;;;;;11.23;5.32;;;;;;;;;;5052240;28;20056;-79
2021/10/12 11:41:14;;;;;;;10.07;5.65;;;;;;;;;;5070302;28;20036;-80
2021/10/12 11:43:42;;;;;;;8.38;5.88;;;;;;;;;;5073380;28;20040;-78
2021/10/12 11:46:07;;;;;;;9.55;5.88;;;;;;;;;;5073594;28;20058;-77
2021/10/12 11:48:37;;;;;;;9.15;5.57;;;;;;;;;;5073310;28;20489;-78
2021/10/12 11:51:20;;;;;;;7.55;4.10;;;;;;;;;;5054682;28;20035;-78
2021/10/12 11:53:47;;;;;;;10.10;5.93;;;;;;;;;;5072629;28;20086;-79
2021/10/12 11:56:15;;;;;;;11.48;5.65;;;;;;;;;;5072579;28;20136;-78
2021/10/12 11:58:41;;;;;;;12.68;5.97;;;;;;;;;;5073037;28;20036;-80
2021/10/12 12:01:11;;;;;;;13.15;6.38;;;;;;;;;;5073580;28;20409;-79
2021/10/12 12:03:40;;;;;;;10.23;5.88;;;;;;;;;;5074035;28;20522;-77
2021/10/12 12:06:07;;;;;;;14.55;5.88;;;;;;;;;;5054458;28;20086;-78
2021/10/12 12:08:33;;;;;;;9.73;6.10;;;;;;;;;;5073616;28;20040;-78
2021/10/12 12:11:01;;;;;;;9.40;5.78;;;;;;;;;;5072179;28;20067;-78
2021/10/12 12:13:27;;;;;;;13.18;7.03;;;;;;;;;;5071467;28;20451;-79
2021/10/12 12:15:54;;;;;;;10.07;6.30;;;;;;;;;;5073201;28;20041;-79
2021/10/12 12:18:23;;;;;;;13.45;6.20;;;;;;;;;;5071822;28;20446;-76
2021/10/12 12:20:54;;;;;;;11.18;5.57;;;;;;;;;;5072618;28;20040;-81
2021/10/12 12:23:29;;;;;;;7.28;5.40;;;;;;;;;;5073925;28;20033;-78
2021/10/12 12:25:56;;;;;;;9.88;5.95;;;;;;;;;;5072766;28;20064;-78
2021/10/12 12:28:21;;;;;;;11.00;5.95;;;;;;;;;;5072844;28;20054;-79
2021/10/12 12:30:47;;;;;;;11.23;6.95;;;;;;;;;;5072468;28;20036;-78
2021/10/12 12:33:12;;;;;;;9.60;5.45;;;;;;;;;;5054933;28;20040;-78
2021/10/12 12:35:43;;;;;;;10.23;6.05;;;;;;;;;;5071208;28;20127;-78
2021/10/12 12:38:09;;;;;;;8.18;4.78;;;;;;;;;;5073193;28;20501;-78
2021/10/12 12:40:39;;;;;;;9.60;6.10;;;;;;;;;;5054351;28;20086;-78
2021/10/12 12:43:30;;;;;;;12.95;6.00;;;;;;;;;;5053042;28;20111;-79
2021/10/12 12:46:15;;;;;;;11.98;6.38;;;;;;;;;;5059145;28;20036;-80
2021/10/12 12:48:43;;;;;;;8.88;4.93;;;;;;;;;;5071427;28;20494;-77
2021/10/12 12:51:10;;;;;;;11.52;6.05;;;;;;;;;;5072471;28;20059;-79
2021/10/12 12:53:44;;;;;;;9.23;5.63;;;;;;;;;;5072377;28;20028;-78
2021/10/12 12:56:12;;;;;;;8.55;5.13;;;;;;;;;;5071956;28;20032;-78
2021/10/12 12:58:39;;;;;;;11.68;5.95;;;;;;;;;;5071212;28;20096;-78
2021/10/12 13:01:06;;;;;;;11.77;6.47;;;;;;;;;;5053251;28;20576;-78
2021/10/12 13:03:32;;;;;;;12.10;6.40;;;;;;;;;;5053645;28;20035;-78
2021/10/12 13:05:57;;;;;;;12.80;8.18;;;;;;;;;;5071860;28;20404;-79
2021/10/12 13:08:22;;;;;;;11.77;8.18;;;;;;;;;;5052552;28;20490;-79
2021/10/12 13:10:48;;;;;;;12.60;5.38;;;;;;;;;;5072757;28;20545;-77
2021/10/12 13:13:13;;;;;;;8.95;5.72;;;;;;;;;;5053481;28;20090;-78
2021/10/12 13:15:39;;;;;;;15.13;6.40;;;;;;;;;;5072359;28;20040;-78
2021/10/12 13:18:04;;;;;;;7.18;5.47;;;;;;;;;;5072197;28;20090;-80
2021/10/12 13:20:30;;;;;;;10.73;6.05;;;;;;;;;;5071294;28;20051;-79
2021/10/12 13:22:55;;;;;;;11.93;7.13;;;;;;;;;;5072035;28;20069;-79
2021/10/12 13:25:20;;;;;;;12.05;6.60;;;;;;;;;;5072000;28;20047;-83
2021/10/12 13:27:46;;;;;;;9.18;5.93;;;;;;;;;;5071645;28;20444;-77
2021/10/12 13:30:14;;;;;;;10.25;6.28;;;;;;;;;;5071728;28;20039;-78
2021/10/12 13:32:39;;;;;;;9.25;5.20;;;;;;;;;;5072387;28;20047;-80
2021/10/12 13:35:05;;;;;;;8.65;4.82;;;;;;;;;;5074572;28;20028;-79
2021/10/12 13:37:31;;;;;;;8.20;4.72;;;;;;;;;;5094451;28;20128;-78
2021/10/12 13:39:56;;;;;;;9.77;5.40;;;;;;;;;;5094608;28;20032;-79
2021/10/12 13:42:22;;;;;;;12.77;6.85;;;;;;;;;;5088676;28;20122;-78
2021/10/12 13:44:51;;;;;;;14.23;6.10;;;;;;;;;;5053558;28;20036;-78
2021/10/12 13:47:18;;;;;;;11.27;5.50;;;;;;;;;;5072403;28;20032;-78
2021/10/12 13:49:44;;;;;;;9.80;5.28;;;;;;;;;;5052459;28;20167;-78
2021/10/12 13:52:11;;;;;;;12.48;5.68;;;;;;;;;;5071476;28;20185;-78
2021/10/12 13:54:36;;;;;;;18.88;6.57;;;;;;;;;;5052620;28;20063;-73
2021/10/12 13:57:02;;;;;;;9.30;5.97;;;;;;;;;;5070495;28;20064;-75
2021/10/12 13:59:27;;;;;;;9.50;6.03;;;;;;;;;;5071021;28;20074;-72
2021/10/12 14:01:53;;;;;;;10.55;5.95;;;;;;;;;;5071045;28;20047;-71
2021/10/12 14:04:19;;;;;;;9.43;6.15;;;;;;;;;;5069329;28;20032;-73
2021/10/12 14:06:45;;;;;;;14.23;7.00;;;;;;;;;;5069386;28;20082;-73
2021/10/12 14:09:11;;;;;;;13.13;7.55;;;;;;;;;;5070835;28;20075;-71
2021/10/12 14:11:36;;;;;;;17.17;7.18;;;;;;;;;;5068788;28;20056;-71
2021/10/12 14:14:05;;;;;;;13.13;7.47;;;;;;;;;;5071078;28;20032;-72
2021/10/12 14:16:30;;;;;;;13.43;6.50;;;;;;;;;;5070940;28;20111;-72
2021/10/12 14:18:56;;;;;;;11.63;6.05;;;;;;;;;;5070438;28;20157;-73
2021/10/12 14:21:23;;;;;;;10.50;6.13;;;;;;;;;;5070251;28;20036;-73
2021/10/12 14:23:49;;;;;;;11.13;7.95;;;;;;;;;;5070938;28;20034;-73
2021/10/12 14:26:15;;;;;;;11.02;6.53;;;;;;;;;;5070201;28;20041;-70
2021/10/12 14:28:40;;;;;;;8.88;5.25;;;;;;;;;;5070395;28;20117;-71
2021/10/12 14:31:06;;;;;;;11.23;6.22;;;;;;;;;;5070900;28;20468;-73
2021/10/12 14:33:31;;;;;;;12.23;6.32;;;;;;;;;;5069172;28;20556;-72
2021/10/12 14:35:57;;;;;;;11.68;6.53;;;;;;;;;;5070088;28;20032;-73
2021/10/12 14:38:26;;;;;;;13.10;5.82;;;;;;;;;;5070239;28;20508;-72